S C — FGF7634 — position and weather

sailwx.info

Track history (hours):
 
Tides and Currents Weather Stations Pressure Air Temp Water Temp Dewpoint Dewpoint Depression Visibility Wind Speed Wind Dir Waves Ship Positions

S C

Last reported at 2014-Oct-20 23:33 UTC. Time now 2014-Oct-21 00:32 UTC.
Position N 49°29' E 000°07'.

; draft 1 m.

Type: Pilot. MMSI: 227001820.

Date/timePositionNaut miles runAvg speedWind from/ knotsBaromVisibWave heightAir tempDewpointWater temp
2014-Oct-20 23:33N 49°29' E 000°07'0 0.0
2014-Oct-20 22:33N 49°29' E 000°07'2 2.4
2014-Oct-20 21:34N 49°30' E 000°03'2 2.4
2014-Oct-20 20:33N 49°29' E 000°07'5 5.3
2014-Oct-20 19:34N 49°30' W 000°01'5 5.3
2014-Oct-20 18:33N 49°29' E 000°07'5 4.6
2014-Oct-20 17:34N 49°30' W 000°00'5 4.6
2014-Oct-20 16:33N 49°29' E 000°07'0 0.1
2014-Oct-20 15:34N 49°29' E 000°07'0 0.1
2014-Oct-20 14:33N 49°29' E 000°07'6 5.5
2014-Oct-20 13:33N 49°32' W 000°00'6 5.5
2014-Oct-20 12:33N 49°29' E 000°07'  
Track history (hours):
 
Tides and Currents Weather Stations Pressure Air Temp Water Temp Dewpoint Dewpoint Depression Visibility Wind Speed Wind Dir Waves Ship Positions

S C

Last reported at 2014-Oct-20 23:33 UTC. Time now 2014-Oct-21 00:32 UTC.
Position N 49°29' E 000°07'.

; draft 1 m.

Type: Pilot. MMSI: 227001820.

Date/timePositionNaut miles runAvg speedWind from/ knotsBaromVisibWave heightAir tempDewpointWater temp
2014-Oct-20 23:33N 49°29' E 000°07'0 0.0
2014-Oct-20 22:33N 49°29' E 000°07'2 2.4
2014-Oct-20 21:34N 49°30' E 000°03'2 2.4
2014-Oct-20 20:33N 49°29' E 000°07'5 5.3
2014-Oct-20 19:34N 49°30' W 000°01'5 5.3
2014-Oct-20 18:33N 49°29' E 000°07'5 4.6
2014-Oct-20 17:34N 49°30' W 000°00'5 4.6
2014-Oct-20 16:33N 49°29' E 000°07'0 0.1
2014-Oct-20 15:34N 49°29' E 000°07'0 0.1
2014-Oct-20 14:33N 49°29' E 000°07'6 5.5
2014-Oct-20 13:33N 49°32' W 000°00'6 5.5
2014-Oct-20 12:33N 49°29' E 000°07'  

Dump ship's entire track history